Aeroporto :
LOGIN :

Iscrizione | Disclaimer

   EN    FR    IT 

 










Sommario :    VFR   VFR Marginale   IFR   IFR Intensivo   IFR Molto Intensivo
Visibilità : 
Base nubi : 
>= 8 km
>= 3000ft
5 / 8 km
1000 / 3000 ft
1500m / 5 km
500 / 1000 ft
800 / 1500m
200 / 500 ft
< 800m
< 200 ft
Simboli :   Temporali  Nebbia  Neve Forte  Precipitazioni Forti  Vento > 20 kt
SIGMETs :   Varie  Temporali  Ghiacco  Turbolenza  Onda orograficha  Ceneri Vulcaniche






- Altitudine del aeroporto : 162 ft
- Codice IATA : BOD


LFBD - Bordeaux / Merignac

ULTIMO METAR :
  • 180600Z AUTO 10007KT CAVOK 21/12 Q1011 TEMPO SCT100TCU

METARs OBSOLETI :
  • 180530Z AUTO 10006KT CAVOK 21/12 Q1011 TEMPO SCT100TCU
  • 180500Z AUTO 11005KT CAVOK 22/12 Q1011 TEMPO SCT100TCU
  • 180430Z AUTO 10008KT CAVOK 22/12 Q1010 TEMPO SCT100TCU
  • 180400Z AUTO 08009KT 040V100 CAVOK 22/13 Q1010 TEMPO SCT100TCU
  • 180330Z AUTO 09004KT CAVOK 22/13 Q1011 TEMPO SCT100TCU

TAF TAF LFBD
Valido dal 18 a 06 ore il 19 a 12 ore UTC


180500Z 1806/1912 09008KT CAVOK TX32/1812Z TN20/1824Z
BECMG 1807/1810 16005KT
TEMPO 1807/1814 SCT100TCU
TEMPO 1814/1822 30010KT -SHRA BKN070TCU
PROB30
TEMPO 1816/1820 VRB20G30KT 3000 -TSRA BKN030CB
BECMG 1822/1824 36010KT SCT010
PROB30 1901/1906 3000 BR
ATIS : +33 5 57 92 81 04



MetMap, La meteo Aeronautica in un colpo d'occhio ! - Copyright ORBIFLY Dicembre 2007 - Disclaimer

ORBIFLY MET'MAP TEAM :

Programmazione e sviluppo : Alexandra Zaïnal
Concezione : Baudouin d'Aumeries
Aiuto per la programmazione : Marc-Olivier Méhu
Supporto tecnico e logistico : Manuel Goepfert
Aiuto per la traduzione : Arnaldo La Scala

Contatto : metmap@orbifly.com




FONTI E CREDITI :

   NOAA